sensor_id;sensor_type;location;lat;lon;timestamp;P1;durP1;ratioP1;P2;durP2;ratioP2
51190;SDS011;37253;48.736;9.294;2022-11-04T00:00:19;95.28;;;49.53;;
51190;SDS011;37253;48.736;9.294;2022-11-04T00:02:19;93.70;;;48.65;;
51190;SDS011;37253;48.736;9.294;2022-11-04T00:04:21;93.57;;;49.30;;
51190;SDS011;37253;48.736;9.294;2022-11-04T00:06:23;87.63;;;48.13;;
51190;SDS011;37253;48.736;9.294;2022-11-04T00:08:23;90.28;;;50.13;;
51190;SDS011;37253;48.736;9.294;2022-11-04T00:10:24;91.32;;;48.60;;
51190;SDS011;37253;48.736;9.294;2022-11-04T00:12:44;86.65;;;47.75;;
51190;SDS011;37253;48.736;9.294;2022-11-04T00:14:44;89.22;;;50.20;;
51190;SDS011;37253;48.736;9.294;2022-11-04T00:16:45;85.47;;;46.05;;
51190;SDS011;37253;48.736;9.294;2022-11-04T00:19:04;87.25;;;46.58;;
51190;SDS011;37253;48.736;9.294;2022-11-04T00:21:04;91.97;;;49.47;;
51190;SDS011;37253;48.736;9.294;2022-11-04T00:23:23;91.15;;;48.78;;
51190;SDS011;37253;48.736;9.294;2022-11-04T00:25:42;87.80;;;48.38;;
51190;SDS011;37253;48.736;9.294;2022-11-04T00:28:14;87.75;;;46.83;;
51190;SDS011;37253;48.736;9.294;2022-11-04T00:30:34;83.70;;;46.92;;
51190;SDS011;37253;48.736;9.294;2022-11-04T00:32:35;81.35;;;45.67;;
51190;SDS011;37253;48.736;9.294;2022-11-04T00:34:54;83.07;;;46.13;;
51190;SDS011;37253;48.736;9.294;2022-11-04T00:36:55;85.05;;;45.97;;
51190;SDS011;37253;48.736;9.294;2022-11-04T00:38:55;84.43;;;44.63;;
51190;SDS011;37253;48.736;9.294;2022-11-04T00:40:55;78.75;;;43.25;;
51190;SDS011;37253;48.736;9.294;2022-11-04T00:42:56;82.03;;;44.33;;
51190;SDS011;37253;48.736;9.294;2022-11-04T00:44:56;78.40;;;42.85;;
51190;SDS011;37253;48.736;9.294;2022-11-04T00:46:56;76.28;;;44.10;;
51190;SDS011;37253;48.736;9.294;2022-11-04T00:48:57;75.30;;;44.55;;
51190;SDS011;37253;48.736;9.294;2022-11-04T00:50:57;82.50;;;44.50;;
51190;SDS011;37253;48.736;9.294;2022-11-04T00:53:01;80.22;;;42.90;;
51190;SDS011;37253;48.736;9.294;2022-11-04T00:55:01;77.85;;;42.83;;
51190;SDS011;37253;48.736;9.294;2022-11-04T00:57:02;78.97;;;42.58;;
51190;SDS011;37253;48.736;9.294;2022-11-04T00:59:03;75.10;;;42.65;;
51190;SDS011;37253;48.736;9.294;2022-11-04T01:01:07;74.53;;;43.60;;
51190;SDS011;37253;48.736;9.294;2022-11-04T01:03:08;74.78;;;40.30;;
51190;SDS011;37253;48.736;9.294;2022-11-04T01:05:08;76.93;;;41.63;;
51190;SDS011;37253;48.736;9.294;2022-11-04T01:07:09;71.28;;;40.75;;
51190;SDS011;37253;48.736;9.294;2022-11-04T01:09:10;71.65;;;41.30;;
51190;SDS011;37253;48.736;9.294;2022-11-04T01:11:11;68.50;;;39.15;;
51190;SDS011;37253;48.736;9.294;2022-11-04T01:13:12;70.18;;;39.45;;
51190;SDS011;37253;48.736;9.294;2022-11-04T01:15:12;70.38;;;40.70;;
51190;SDS011;37253;48.736;9.294;2022-11-04T01:17:13;65.47;;;39.17;;
51190;SDS011;37253;48.736;9.294;2022-11-04T01:19:13;69.50;;;39.17;;
51190;SDS011;37253;48.736;9.294;2022-11-04T01:21:14;65.85;;;39.65;;
51190;SDS011;37253;48.736;9.294;2022-11-04T01:23:15;69.90;;;40.67;;
51190;SDS011;37253;48.736;9.294;2022-11-04T01:25:16;67.38;;;37.45;;
51190;SDS011;37253;48.736;9.294;2022-11-04T01:27:16;74.60;;;39.97;;
51190;SDS011;37253;48.736;9.294;2022-11-04T01:29:16;69.57;;;38.03;;
51190;SDS011;37253;48.736;9.294;2022-11-04T01:31:18;68.85;;;39.28;;
51190;SDS011;37253;48.736;9.294;2022-11-04T01:33:22;62.83;;;36.47;;
51190;SDS011;37253;48.736;9.294;2022-11-04T01:35:23;67.43;;;37.28;;
51190;SDS011;37253;48.736;9.294;2022-11-04T01:37:24;66.63;;;37.33;;
51190;SDS011;37253;48.736;9.294;2022-11-04T01:39:24;65.00;;;37.58;;
51190;SDS011;37253;48.736;9.294;2022-11-04T01:41:26;65.45;;;37.80;;
51190;SDS011;37253;48.736;9.294;2022-11-04T01:43:44;62.00;;;36.47;;
51190;SDS011;37253;48.736;9.294;2022-11-04T01:45:54;64.68;;;36.90;;
51190;SDS011;37253;48.736;9.294;2022-11-04T01:47:58;61.83;;;36.00;;
51190;SDS011;37253;48.736;9.294;2022-11-04T01:50:10;63.50;;;36.33;;
51190;SDS011;37253;48.736;9.294;2022-11-04T01:52:16;59.58;;;34.42;;
51190;SDS011;37253;48.736;9.294;2022-11-04T01:54:19;60.65;;;35.63;;
51190;SDS011;37253;48.736;9.294;2022-11-04T01:56:19;63.83;;;34.75;;
51190;SDS011;37253;48.736;9.294;2022-11-04T01:58:20;57.08;;;34.63;;
51190;SDS011;37253;48.736;9.294;2022-11-04T02:00:22;63.37;;;35.57;;
51190;SDS011;37253;48.736;9.294;2022-11-04T02:02:23;61.33;;;33.72;;
51190;SDS011;37253;48.736;9.294;2022-11-04T02:04:23;56.92;;;33.60;;
51190;SDS011;37253;48.736;9.294;2022-11-04T02:08:26;60.67;;;34.88;;
51190;SDS011;37253;48.736;9.294;2022-11-04T02:10:28;56.05;;;33.63;;
51190;SDS011;37253;48.736;9.294;2022-11-04T02:12:29;59.90;;;34.90;;
51190;SDS011;37253;48.736;9.294;2022-11-04T02:15:02;54.53;;;33.33;;
51190;SDS011;37253;48.736;9.294;2022-11-04T02:19:27;55.33;;;32.42;;
51190;SDS011;37253;48.736;9.294;2022-11-04T02:24:12;56.65;;;32.88;;
51190;SDS011;37253;48.736;9.294;2022-11-04T02:29:19;54.08;;;30.42;;
51190;SDS011;37253;48.736;9.294;2022-11-04T02:31:28;50.08;;;29.90;;
51190;SDS011;37253;48.736;9.294;2022-11-04T02:33:40;53.47;;;30.95;;
51190;SDS011;37253;48.736;9.294;2022-11-04T02:38:33;51.10;;;30.30;;
51190;SDS011;37253;48.736;9.294;2022-11-04T02:41:39;54.17;;;30.83;;
51190;SDS011;37253;48.736;9.294;2022-11-04T02:47:37;50.03;;;29.50;;
51190;SDS011;37253;48.736;9.294;2022-11-04T02:49:44;51.58;;;28.95;;
51190;SDS011;37253;48.736;9.294;2022-11-04T02:51:50;52.05;;;30.35;;
51190;SDS011;37253;48.736;9.294;2022-11-04T02:56:01;49.13;;;29.75;;
51190;SDS011;37253;48.736;9.294;2022-11-04T02:58:03;46.20;;;28.80;;
51190;SDS011;37253;48.736;9.294;2022-11-04T03:00:09;49.45;;;29.13;;
51190;SDS011;37253;48.736;9.294;2022-11-04T03:02:12;47.05;;;28.63;;
51190;SDS011;37253;48.736;9.294;2022-11-04T03:04:24;53.33;;;30.02;;
51190;SDS011;37253;48.736;9.294;2022-11-04T03:06:28;48.92;;;28.70;;
51190;SDS011;37253;48.736;9.294;2022-11-04T03:08:33;47.90;;;28.95;;
51190;SDS011;37253;48.736;9.294;2022-11-04T03:10:37;46.33;;;28.77;;
51190;SDS011;37253;48.736;9.294;2022-11-04T03:12:48;46.70;;;27.95;;
51190;SDS011;37253;48.736;9.294;2022-11-04T03:14:51;43.95;;;27.48;;
51190;SDS011;37253;48.736;9.294;2022-11-04T03:16:58;46.17;;;27.60;;
51190;SDS011;37253;48.736;9.294;2022-11-04T03:21:24;44.05;;;27.38;;
51190;SDS011;37253;48.736;9.294;2022-11-04T03:23:27;45.28;;;28.05;;
51190;SDS011;37253;48.736;9.294;2022-11-04T03:25:31;41.10;;;25.80;;
51190;SDS011;37253;48.736;9.294;2022-11-04T03:27:42;42.65;;;26.52;;
51190;SDS011;37253;48.736;9.294;2022-11-04T03:30:03;43.38;;;27.00;;
51190;SDS011;37253;48.736;9.294;2022-11-04T03:32:11;45.15;;;27.55;;
51190;SDS011;37253;48.736;9.294;2022-11-04T03:34:18;40.20;;;26.27;;
51190;SDS011;37253;48.736;9.294;2022-11-04T03:36:18;44.55;;;26.70;;
51190;SDS011;37253;48.736;9.294;2022-11-04T03:38:20;44.55;;;26.48;;
51190;SDS011;37253;48.736;9.294;2022-11-04T03:40:21;41.20;;;25.90;;
51190;SDS011;37253;48.736;9.294;2022-11-04T03:42:22;44.58;;;26.63;;
51190;SDS011;37253;48.736;9.294;2022-11-04T03:44:22;40.75;;;24.73;;
51190;SDS011;37253;48.736;9.294;2022-11-04T03:46:23;40.90;;;25.02;;
51190;SDS011;37253;48.736;9.294;2022-11-04T03:48:24;46.25;;;26.70;;
51190;SDS011;37253;48.736;9.294;2022-11-04T03:50:31;41.47;;;25.63;;
51190;SDS011;37253;48.736;9.294;2022-11-04T03:52:33;43.55;;;25.10;;
51190;SDS011;37253;48.736;9.294;2022-11-04T03:54:33;43.17;;;26.85;;
51190;SDS011;37253;48.736;9.294;2022-11-04T04:01:29;40.05;;;24.73;;
51190;SDS011;37253;48.736;9.294;2022-11-04T04:03:40;38.22;;;23.38;;
51190;SDS011;37253;48.736;9.294;2022-11-04T04:07:57;39.60;;;23.10;;
51190;SDS011;37253;48.736;9.294;2022-11-04T04:12:37;40.13;;;25.17;;
51190;SDS011;37253;48.736;9.294;2022-11-04T04:16:45;39.17;;;23.63;;
51190;SDS011;37253;48.736;9.294;2022-11-04T04:18:51;41.75;;;24.10;;
51190;SDS011;37253;48.736;9.294;2022-11-04T04:20:53;35.47;;;21.88;;
51190;SDS011;37253;48.736;9.294;2022-11-04T04:22:56;37.05;;;22.23;;
51190;SDS011;37253;48.736;9.294;2022-11-04T04:25:00;37.33;;;23.10;;
51190;SDS011;37253;48.736;9.294;2022-11-04T04:27:21;35.22;;;22.98;;
51190;SDS011;37253;48.736;9.294;2022-11-04T04:29:31;34.83;;;21.88;;
51190;SDS011;37253;48.736;9.294;2022-11-04T04:31:32;35.45;;;22.13;;
51190;SDS011;37253;48.736;9.294;2022-11-04T04:33:51;33.95;;;21.80;;
51190;SDS011;37253;48.736;9.294;2022-11-04T04:35:52;36.67;;;22.02;;
51190;SDS011;37253;48.736;9.294;2022-11-04T04:37:55;33.05;;;21.95;;
51190;SDS011;37253;48.736;9.294;2022-11-04T04:40:18;32.63;;;21.20;;
51190;SDS011;37253;48.736;9.294;2022-11-04T04:42:37;35.72;;;21.98;;
51190;SDS011;37253;48.736;9.294;2022-11-04T04:44:56;34.42;;;20.90;;
51190;SDS011;37253;48.736;9.294;2022-11-04T04:47:01;32.42;;;21.02;;
51190;SDS011;37253;48.736;9.294;2022-11-04T04:49:05;35.35;;;21.98;;
51190;SDS011;37253;48.736;9.294;2022-11-04T04:51:06;35.35;;;21.58;;
51190;SDS011;37253;48.736;9.294;2022-11-04T04:53:06;31.55;;;19.63;;
51190;SDS011;37253;48.736;9.294;2022-11-04T04:55:07;34.53;;;21.08;;
51190;SDS011;37253;48.736;9.294;2022-11-04T04:57:08;32.58;;;21.52;;
51190;SDS011;37253;48.736;9.294;2022-11-04T04:59:08;32.28;;;21.25;;
51190;SDS011;37253;48.736;9.294;2022-11-04T05:01:08;33.42;;;20.38;;
51190;SDS011;37253;48.736;9.294;2022-11-04T05:03:09;29.65;;;20.10;;
51190;SDS011;37253;48.736;9.294;2022-11-04T05:05:10;31.70;;;19.45;;
51190;SDS011;37253;48.736;9.294;2022-11-04T05:07:12;31.53;;;20.00;;
51190;SDS011;37253;48.736;9.294;2022-11-04T05:09:12;30.48;;;19.83;;
51190;SDS011;37253;48.736;9.294;2022-11-04T05:11:13;31.05;;;19.30;;
51190;SDS011;37253;48.736;9.294;2022-11-04T05:13:13;31.17;;;19.27;;
51190;SDS011;37253;48.736;9.294;2022-11-04T05:15:26;29.95;;;19.38;;
51190;SDS011;37253;48.736;9.294;2022-11-04T05:17:27;28.98;;;19.73;;
51190;SDS011;37253;48.736;9.294;2022-11-04T05:19:27;29.88;;;18.98;;
51190;SDS011;37253;48.736;9.294;2022-11-04T05:21:27;29.20;;;19.70;;
51190;SDS011;37253;48.736;9.294;2022-11-04T05:23:27;28.67;;;19.00;;
51190;SDS011;37253;48.736;9.294;2022-11-04T05:25:28;29.27;;;19.13;;
51190;SDS011;37253;48.736;9.294;2022-11-04T05:27:28;25.92;;;17.65;;
51190;SDS011;37253;48.736;9.294;2022-11-04T05:29:28;30.48;;;19.60;;
51190;SDS011;37253;48.736;9.294;2022-11-04T05:31:29;28.85;;;18.45;;
51190;SDS011;37253;48.736;9.294;2022-11-04T05:33:29;28.90;;;18.60;;
51190;SDS011;37253;48.736;9.294;2022-11-04T05:35:30;28.98;;;18.45;;
51190;SDS011;37253;48.736;9.294;2022-11-04T05:37:30;26.77;;;17.65;;
51190;SDS011;37253;48.736;9.294;2022-11-04T05:39:30;27.23;;;17.63;;
51190;SDS011;37253;48.736;9.294;2022-11-04T05:41:31;28.15;;;17.52;;
51190;SDS011;37253;48.736;9.294;2022-11-04T05:43:32;26.77;;;17.42;;
51190;SDS011;37253;48.736;9.294;2022-11-04T05:45:33;27.83;;;18.23;;
51190;SDS011;37253;48.736;9.294;2022-11-04T05:47:33;26.17;;;17.45;;
51190;SDS011;37253;48.736;9.294;2022-11-04T05:49:33;24.52;;;16.40;;
51190;SDS011;37253;48.736;9.294;2022-11-04T05:51:34;27.27;;;17.95;;
51190;SDS011;37253;48.736;9.294;2022-11-04T05:53:34;26.83;;;16.50;;
51190;SDS011;37253;48.736;9.294;2022-11-04T05:55:34;24.10;;;17.58;;
51190;SDS011;37253;48.736;9.294;2022-11-04T05:57:35;24.88;;;16.63;;
51190;SDS011;37253;48.736;9.294;2022-11-04T05:59:37;28.52;;;16.67;;
51190;SDS011;37253;48.736;9.294;2022-11-04T06:01:38;26.92;;;16.48;;
51190;SDS011;37253;48.736;9.294;2022-11-04T06:03:40;29.95;;;17.40;;
51190;SDS011;37253;48.736;9.294;2022-11-04T06:05:40;25.98;;;16.23;;
51190;SDS011;37253;48.736;9.294;2022-11-04T06:07:40;26.13;;;16.88;;
51190;SDS011;37253;48.736;9.294;2022-11-04T06:09:41;23.50;;;15.43;;
51190;SDS011;37253;48.736;9.294;2022-11-04T06:11:41;27.08;;;17.33;;
51190;SDS011;37253;48.736;9.294;2022-11-04T06:13:41;26.08;;;16.30;;
51190;SDS011;37253;48.736;9.294;2022-11-04T06:15:41;27.75;;;17.15;;
51190;SDS011;37253;48.736;9.294;2022-11-04T06:17:42;26.67;;;17.35;;
51190;SDS011;37253;48.736;9.294;2022-11-04T06:19:42;25.92;;;16.30;;
51190;SDS011;37253;48.736;9.294;2022-11-04T06:21:43;28.42;;;16.73;;
51190;SDS011;37253;48.736;9.294;2022-11-04T06:23:43;25.83;;;16.10;;
51190;SDS011;37253;48.736;9.294;2022-11-04T06:25:44;29.63;;;16.38;;
51190;SDS011;37253;48.736;9.294;2022-11-04T06:27:44;25.63;;;15.98;;
51190;SDS011;37253;48.736;9.294;2022-11-04T06:29:45;24.92;;;14.98;;
51190;SDS011;37253;48.736;9.294;2022-11-04T06:31:46;27.23;;;16.17;;
51190;SDS011;37253;48.736;9.294;2022-11-04T06:33:46;29.08;;;16.73;;
51190;SDS011;37253;48.736;9.294;2022-11-04T06:35:48;28.65;;;16.42;;
51190;SDS011;37253;48.736;9.294;2022-11-04T06:37:48;24.25;;;15.48;;
51190;SDS011;37253;48.736;9.294;2022-11-04T06:39:48;24.02;;;15.00;;
51190;SDS011;37253;48.736;9.294;2022-11-04T06:41:49;27.92;;;15.82;;
51190;SDS011;37253;48.736;9.294;2022-11-04T06:43:49;23.15;;;15.13;;
51190;SDS011;37253;48.736;9.294;2022-11-04T06:45:53;25.00;;;15.35;;
51190;SDS011;37253;48.736;9.294;2022-11-04T06:47:53;25.33;;;15.63;;
51190;SDS011;37253;48.736;9.294;2022-11-04T06:49:54;23.58;;;14.30;;
51190;SDS011;37253;48.736;9.294;2022-11-04T06:51:54;20.63;;;14.90;;
51190;SDS011;37253;48.736;9.294;2022-11-04T06:53:54;23.15;;;14.60;;
51190;SDS011;37253;48.736;9.294;2022-11-04T06:56:00;22.50;;;14.55;;
51190;SDS011;37253;48.736;9.294;2022-11-04T06:58:01;25.77;;;15.15;;
51190;SDS011;37253;48.736;9.294;2022-11-04T07:00:02;23.67;;;15.00;;
51190;SDS011;37253;48.736;9.294;2022-11-04T07:02:02;23.75;;;15.18;;
51190;SDS011;37253;48.736;9.294;2022-11-04T07:04:03;22.20;;;15.40;;
51190;SDS011;37253;48.736;9.294;2022-11-04T07:08:07;24.90;;;13.93;;
51190;SDS011;37253;48.736;9.294;2022-11-04T07:10:09;27.70;;;13.98;;
51190;SDS011;37253;48.736;9.294;2022-11-04T07:12:09;22.95;;;13.45;;
51190;SDS011;37253;48.736;9.294;2022-11-04T07:14:09;22.80;;;13.38;;
51190;SDS011;37253;48.736;9.294;2022-11-04T07:16:10;22.63;;;13.77;;
51190;SDS011;37253;48.736;9.294;2022-11-04T07:18:11;12.95;;;9.25;;
51190;SDS011;37253;48.736;9.294;2022-11-04T07:20:11;15.07;;;9.82;;
51190;SDS011;37253;48.736;9.294;2022-11-04T07:22:12;13.63;;;8.27;;
51190;SDS011;37253;48.736;9.294;2022-11-04T07:24:12;18.88;;;10.13;;
51190;SDS011;37253;48.736;9.294;2022-11-04T07:26:12;16.95;;;9.68;;
51190;SDS011;37253;48.736;9.294;2022-11-04T07:28:13;16.42;;;10.25;;
51190;SDS011;37253;48.736;9.294;2022-11-04T07:30:13;13.13;;;9.30;;
51190;SDS011;37253;48.736;9.294;2022-11-04T07:32:13;18.35;;;9.85;;
51190;SDS011;37253;48.736;9.294;2022-11-04T07:34:14;17.27;;;10.63;;
51190;SDS011;37253;48.736;9.294;2022-11-04T07:36:14;12.95;;;9.00;;
51190;SDS011;37253;48.736;9.294;2022-11-04T07:38:16;15.45;;;10.00;;
51190;SDS011;37253;48.736;9.294;2022-11-04T07:40:16;18.15;;;10.05;;
51190;SDS011;37253;48.736;9.294;2022-11-04T07:42:16;14.82;;;10.23;;
51190;SDS011;37253;48.736;9.294;2022-11-04T07:44:17;14.43;;;9.30;;
51190;SDS011;37253;48.736;9.294;2022-11-04T07:46:17;17.70;;;10.00;;
51190;SDS011;37253;48.736;9.294;2022-11-04T07:48:18;18.67;;;9.80;;
51190;SDS011;37253;48.736;9.294;2022-11-04T07:50:18;17.77;;;10.05;;
51190;SDS011;37253;48.736;9.294;2022-11-04T07:52:19;15.18;;;10.45;;
51190;SDS011;37253;48.736;9.294;2022-11-04T07:54:19;15.70;;;10.55;;
51190;SDS011;37253;48.736;9.294;2022-11-04T07:56:19;17.23;;;10.23;;
51190;SDS011;37253;48.736;9.294;2022-11-04T07:58:20;15.25;;;10.18;;
51190;SDS011;37253;48.736;9.294;2022-11-04T08:00:21;15.98;;;9.55;;
51190;SDS011;37253;48.736;9.294;2022-11-04T08:02:21;15.82;;;10.07;;
51190;SDS011;37253;48.736;9.294;2022-11-04T08:04:21;15.57;;;11.02;;
51190;SDS011;37253;48.736;9.294;2022-11-04T08:06:22;14.10;;;9.60;;
51190;SDS011;37253;48.736;9.294;2022-11-04T08:08:22;14.73;;;9.88;;
51190;SDS011;37253;48.736;9.294;2022-11-04T08:10:23;15.63;;;9.85;;
51190;SDS011;37253;48.736;9.294;2022-11-04T08:12:23;15.80;;;10.23;;
51190;SDS011;37253;48.736;9.294;2022-11-04T08:14:24;15.07;;;10.13;;
51190;SDS011;37253;48.736;9.294;2022-11-04T08:16:24;16.70;;;10.18;;
51190;SDS011;37253;48.736;9.294;2022-11-04T08:18:25;16.77;;;11.30;;
51190;SDS011;37253;48.736;9.294;2022-11-04T08:20:25;20.00;;;9.57;;
51190;SDS011;37253;48.736;9.294;2022-11-04T08:22:25;14.55;;;9.95;;
51190;SDS011;37253;48.736;9.294;2022-11-04T08:24:26;21.30;;;9.75;;
51190;SDS011;37253;48.736;9.294;2022-11-04T08:26:26;13.40;;;9.70;;
51190;SDS011;37253;48.736;9.294;2022-11-04T08:28:26;13.30;;;8.85;;
51190;SDS011;37253;48.736;9.294;2022-11-04T08:30:28;15.75;;;9.63;;
51190;SDS011;37253;48.736;9.294;2022-11-04T08:32:28;15.13;;;9.27;;
51190;SDS011;37253;48.736;9.294;2022-11-04T08:34:29;14.60;;;9.18;;
51190;SDS011;37253;48.736;9.294;2022-11-04T08:36:31;17.15;;;9.40;;
51190;SDS011;37253;48.736;9.294;2022-11-04T08:38:33;15.52;;;9.68;;
51190;SDS011;37253;48.736;9.294;2022-11-04T08:40:37;14.98;;;9.07;;
51190;SDS011;37253;48.736;9.294;2022-11-04T08:42:37;11.90;;;8.18;;
51190;SDS011;37253;48.736;9.294;2022-11-04T08:44:37;14.32;;;9.07;;
51190;SDS011;37253;48.736;9.294;2022-11-04T08:46:39;14.07;;;9.52;;
51190;SDS011;37253;48.736;9.294;2022-11-04T08:48:40;12.52;;;8.68;;
51190;SDS011;37253;48.736;9.294;2022-11-04T08:50:41;15.90;;;8.30;;
51190;SDS011;37253;48.736;9.294;2022-11-04T08:52:42;12.27;;;8.85;;
51190;SDS011;37253;48.736;9.294;2022-11-04T08:54:43;12.75;;;8.90;;
51190;SDS011;37253;48.736;9.294;2022-11-04T08:56:44;13.00;;;8.25;;
51190;SDS011;37253;48.736;9.294;2022-11-04T08:58:44;13.73;;;8.88;;
51190;SDS011;37253;48.736;9.294;2022-11-04T09:00:44;14.43;;;8.40;;
51190;SDS011;37253;48.736;9.294;2022-11-04T09:02:45;13.52;;;8.82;;
51190;SDS011;37253;48.736;9.294;2022-11-04T09:04:45;15.45;;;8.70;;
51190;SDS011;37253;48.736;9.294;2022-11-04T09:06:46;10.85;;;8.18;;
51190;SDS011;37253;48.736;9.294;2022-11-04T09:08:47;14.68;;;8.07;;
51190;SDS011;37253;48.736;9.294;2022-11-04T09:10:47;12.23;;;7.80;;
51190;SDS011;37253;48.736;9.294;2022-11-04T09:12:48;12.82;;;8.57;;
51190;SDS011;37253;48.736;9.294;2022-11-04T09:14:48;15.38;;;8.30;;
51190;SDS011;37253;48.736;9.294;2022-11-04T09:16:48;11.27;;;8.68;;
51190;SDS011;37253;48.736;9.294;2022-11-04T09:18:49;15.00;;;8.98;;
51190;SDS011;37253;48.736;9.294;2022-11-04T09:20:49;15.65;;;9.18;;
51190;SDS011;37253;48.736;9.294;2022-11-04T09:22:49;16.65;;;8.75;;
51190;SDS011;37253;48.736;9.294;2022-11-04T09:24:49;13.70;;;8.55;;
51190;SDS011;37253;48.736;9.294;2022-11-04T09:26:50;11.95;;;8.38;;
51190;SDS011;37253;48.736;9.294;2022-11-04T09:28:54;11.18;;;8.02;;
51190;SDS011;37253;48.736;9.294;2022-11-04T09:30:55;12.10;;;7.78;;
51190;SDS011;37253;48.736;9.294;2022-11-04T09:32:55;11.98;;;7.95;;
51190;SDS011;37253;48.736;9.294;2022-11-04T09:34:57;13.10;;;8.23;;
51190;SDS011;37253;48.736;9.294;2022-11-04T09:36:57;13.52;;;8.32;;
51190;SDS011;37253;48.736;9.294;2022-11-04T09:38:57;11.75;;;7.78;;
51190;SDS011;37253;48.736;9.294;2022-11-04T09:40:58;10.85;;;7.30;;
51190;SDS011;37253;48.736;9.294;2022-11-04T09:43:21;9.82;;;7.30;;
51190;SDS011;37253;48.736;9.294;2022-11-04T09:45:37;12.13;;;8.10;;
51190;SDS011;37253;48.736;9.294;2022-11-04T09:47:39;9.63;;;7.15;;
51190;SDS011;37253;48.736;9.294;2022-11-04T09:49:42;13.77;;;8.27;;
51190;SDS011;37253;48.736;9.294;2022-11-04T09:51:45;12.98;;;7.65;;
51190;SDS011;37253;48.736;9.294;2022-11-04T09:53:50;14.30;;;8.02;;
51190;SDS011;37253;48.736;9.294;2022-11-04T09:57:54;16.38;;;8.23;;
51190;SDS011;37253;48.736;9.294;2022-11-04T10:04:37;11.90;;;7.85;;
51190;SDS011;37253;48.736;9.294;2022-11-04T10:09:49;12.40;;;7.13;;
51190;SDS011;37253;48.736;9.294;2022-11-04T10:16:56;10.60;;;6.97;;
51190;SDS011;37253;48.736;9.294;2022-11-04T10:19:23;23.70;;;7.93;;
51190;SDS011;37253;48.736;9.294;2022-11-04T10:21:33;13.90;;;7.10;;
51190;SDS011;37253;48.736;9.294;2022-11-04T10:25:47;23.52;;;7.60;;
51190;SDS011;37253;48.736;9.294;2022-11-04T10:27:49;14.07;;;7.80;;
51190;SDS011;37253;48.736;9.294;2022-11-04T10:29:55;11.45;;;6.85;;
51190;SDS011;37253;48.736;9.294;2022-11-04T10:32:02;25.55;;;7.82;;
51190;SDS011;37253;48.736;9.294;2022-11-04T10:34:07;21.63;;;7.15;;
51190;SDS011;37253;48.736;9.294;2022-11-04T10:36:11;16.73;;;7.57;;
51190;SDS011;37253;48.736;9.294;2022-11-04T10:38:19;18.75;;;8.25;;
51190;SDS011;37253;48.736;9.294;2022-11-04T10:40:26;19.70;;;7.53;;
51190;SDS011;37253;48.736;9.294;2022-11-04T10:42:28;16.60;;;7.90;;
51190;SDS011;37253;48.736;9.294;2022-11-04T10:44:31;27.15;;;7.63;;
51190;SDS011;37253;48.736;9.294;2022-11-04T10:50:59;17.33;;;7.55;;
51190;SDS011;37253;48.736;9.294;2022-11-04T10:53:06;18.70;;;7.63;;
51190;SDS011;37253;48.736;9.294;2022-11-04T10:57:30;15.35;;;7.50;;
51190;SDS011;37253;48.736;9.294;2022-11-04T10:59:35;16.52;;;7.40;;
51190;SDS011;37253;48.736;9.294;2022-11-04T11:01:49;15.70;;;8.00;;
51190;SDS011;37253;48.736;9.294;2022-11-04T11:03:51;9.57;;;6.68;;
51190;SDS011;37253;48.736;9.294;2022-11-04T11:05:52;11.07;;;6.60;;
51190;SDS011;37253;48.736;9.294;2022-11-04T11:07:54;11.45;;;6.45;;
51190;SDS011;37253;48.736;9.294;2022-11-04T11:09:55;14.35;;;7.35;;
51190;SDS011;37253;48.736;9.294;2022-11-04T11:12:04;15.02;;;6.72;;
51190;SDS011;37253;48.736;9.294;2022-11-04T11:14:19;18.83;;;7.10;;
51190;SDS011;37253;48.736;9.294;2022-11-04T11:16:31;12.35;;;7.07;;
51190;SDS011;37253;48.736;9.294;2022-11-04T11:18:31;14.05;;;7.18;;
51190;SDS011;37253;48.736;9.294;2022-11-04T11:20:32;11.50;;;6.88;;
51190;SDS011;37253;48.736;9.294;2022-11-04T11:22:37;12.07;;;6.47;;
51190;SDS011;37253;48.736;9.294;2022-11-04T11:24:40;10.38;;;6.57;;
51190;SDS011;37253;48.736;9.294;2022-11-04T11:26:40;11.13;;;6.70;;
51190;SDS011;37253;48.736;9.294;2022-11-04T11:28:50;11.70;;;6.80;;
51190;SDS011;37253;48.736;9.294;2022-11-04T11:30:56;9.02;;;6.43;;
51190;SDS011;37253;48.736;9.294;2022-11-04T11:35:02;13.35;;;6.50;;
51190;SDS011;37253;48.736;9.294;2022-11-04T11:37:03;9.20;;;5.93;;
51190;SDS011;37253;48.736;9.294;2022-11-04T11:39:19;10.55;;;6.40;;
51190;SDS011;37253;48.736;9.294;2022-11-04T11:41:21;10.90;;;6.68;;
51190;SDS011;37253;48.736;9.294;2022-11-04T11:43:28;13.77;;;6.25;;
51190;SDS011;37253;48.736;9.294;2022-11-04T11:45:30;9.10;;;6.43;;
51190;SDS011;37253;48.736;9.294;2022-11-04T11:47:34;10.45;;;5.95;;
51190;SDS011;37253;48.736;9.294;2022-11-04T11:49:41;10.20;;;6.53;;
51190;SDS011;37253;48.736;9.294;2022-11-04T11:51:41;9.43;;;6.32;;
51190;SDS011;37253;48.736;9.294;2022-11-04T11:53:56;13.07;;;6.53;;
51190;SDS011;37253;48.736;9.294;2022-11-04T11:56:20;12.90;;;6.72;;
51190;SDS011;37253;48.736;9.294;2022-11-04T11:58:35;11.13;;;6.03;;
51190;SDS011;37253;48.736;9.294;2022-11-04T12:00:45;9.75;;;4.78;;
51190;SDS011;37253;48.736;9.294;2022-11-04T12:05:09;8.82;;;5.30;;
51190;SDS011;37253;48.736;9.294;2022-11-04T12:09:45;7.50;;;5.05;;
51190;SDS011;37253;48.736;9.294;2022-11-04T12:12:00;9.80;;;5.10;;
51190;SDS011;37253;48.736;9.294;2022-11-04T12:14:09;12.68;;;5.43;;
51190;SDS011;37253;48.736;9.294;2022-11-04T12:16:14;7.88;;;5.13;;
51190;SDS011;37253;48.736;9.294;2022-11-04T12:21:02;11.20;;;5.53;;
51190;SDS011;37253;48.736;9.294;2022-11-04T12:27:40;9.57;;;5.70;;
51190;SDS011;37253;48.736;9.294;2022-11-04T12:34:11;7.05;;;5.05;;
51190;SDS011;37253;48.736;9.294;2022-11-04T12:36:34;10.65;;;5.68;;
51190;SDS011;37253;48.736;9.294;2022-11-04T12:47:45;7.22;;;5.07;;
51190;SDS011;37253;48.736;9.294;2022-11-04T12:56:47;7.88;;;5.07;;
51190;SDS011;37253;48.736;9.294;2022-11-04T13:03:26;8.35;;;5.32;;
51190;SDS011;37253;48.736;9.294;2022-11-04T13:05:32;8.95;;;5.28;;
51190;SDS011;37253;48.736;9.294;2022-11-04T13:07:39;6.78;;;4.90;;
51190;SDS011;37253;48.736;9.294;2022-11-04T13:09:43;7.03;;;4.65;;
51190;SDS011;37253;48.736;9.294;2022-11-04T13:11:52;7.30;;;4.88;;
51190;SDS011;37253;48.736;9.294;2022-11-04T13:16:19;8.98;;;4.93;;
51190;SDS011;37253;48.736;9.294;2022-11-04T13:18:19;7.80;;;5.35;;
51190;SDS011;37253;48.736;9.294;2022-11-04T13:22:30;8.25;;;4.78;;
51190;SDS011;37253;48.736;9.294;2022-11-04T13:24:33;8.52;;;4.95;;
51190;SDS011;37253;48.736;9.294;2022-11-04T13:26:37;6.07;;;4.75;;
51190;SDS011;37253;48.736;9.294;2022-11-04T13:28:37;9.13;;;5.18;;
51190;SDS011;37253;48.736;9.294;2022-11-04T13:35:14;6.90;;;4.90;;
51190;SDS011;37253;48.736;9.294;2022-11-04T13:37:26;7.13;;;4.80;;
51190;SDS011;37253;48.736;9.294;2022-11-04T13:39:33;8.90;;;4.72;;
51190;SDS011;37253;48.736;9.294;2022-11-04T13:44:46;8.40;;;4.88;;
51190;SDS011;37253;48.736;9.294;2022-11-04T13:46:39;9.40;;;4.65;;
51190;SDS011;37253;48.736;9.294;2022-11-04T13:48:51;6.07;;;4.32;;
51190;SDS011;37253;48.736;9.294;2022-11-04T13:51:05;7.95;;;4.90;;
51190;SDS011;37253;48.736;9.294;2022-11-04T13:53:07;7.78;;;5.15;;
51190;SDS011;37253;48.736;9.294;2022-11-04T13:57:16;6.85;;;4.60;;
51190;SDS011;37253;48.736;9.294;2022-11-04T13:59:25;9.00;;;5.20;;
51190;SDS011;37253;48.736;9.294;2022-11-04T14:01:28;6.53;;;4.53;;